createdAt,value
2023-01-29T00:00:18.028Z,4.50
2023-01-29T00:01:17.454Z,3.90
2023-01-29T00:02:17.581Z,4.20
2023-01-29T00:03:17.469Z,4.40
2023-01-29T00:04:17.573Z,4.10
2023-01-29T00:05:27.519Z,4.20
2023-01-29T00:06:18.394Z,4.50
2023-01-29T00:07:17.485Z,4.20
2023-01-29T00:08:17.364Z,4.20
2023-01-29T00:09:17.528Z,4.20
2023-01-29T00:10:17.720Z,4.00
2023-01-29T00:11:20.700Z,4.00
2023-01-29T00:12:17.322Z,3.70
2023-01-29T00:13:17.385Z,3.60
2023-01-29T00:14:17.291Z,3.90
2023-01-29T00:15:17.312Z,4.40
2023-01-29T00:16:17.283Z,4.00
2023-01-29T00:18:28.170Z,3.70
2023-01-29T00:19:27.962Z,3.90
2023-01-29T00:20:30.090Z,3.80
2023-01-29T00:21:27.953Z,4.00
2023-01-29T00:22:28.038Z,4.00
2023-01-29T00:23:27.912Z,3.40
2023-01-29T00:24:28.127Z,3.80
2023-01-29T00:25:27.899Z,4.00
2023-01-29T00:26:29.045Z,4.00
2023-01-29T00:27:27.884Z,3.90
2023-01-29T00:28:27.944Z,3.70
2023-01-29T00:29:27.829Z,3.60
2023-01-29T00:30:27.882Z,3.80
2023-01-29T00:31:27.940Z,4.10
2023-01-29T00:32:50.899Z,4.10
2023-01-29T00:33:27.836Z,3.90
2023-01-29T00:34:27.950Z,3.60
2023-01-29T00:35:27.760Z,3.90
2023-01-29T00:36:27.893Z,4.00
2023-01-29T00:37:27.730Z,4.00
2023-01-29T00:38:27.768Z,4.30
2023-01-29T00:39:33.746Z,3.70
2023-01-29T00:40:28.697Z,4.00
2023-01-29T00:41:27.823Z,3.90
2023-01-29T00:42:27.657Z,3.50
2023-01-29T00:43:27.732Z,3.60
2023-01-29T00:44:27.649Z,3.60
2023-01-29T00:45:27.689Z,3.40
2023-01-29T00:46:27.641Z,3.70
2023-01-29T00:47:27.736Z,3.80
2023-01-29T00:48:27.577Z,3.70
2023-01-29T00:49:27.767Z,3.50
2023-01-29T00:50:27.580Z,3.30
2023-01-29T00:51:27.603Z,3.80
2023-01-29T00:52:27.546Z,3.50
2023-01-29T00:53:27.603Z,3.60
2023-01-29T00:54:27.498Z,3.80
2023-01-29T00:55:27.585Z,3.60
2023-01-29T00:56:27.487Z,3.40
2023-01-29T00:57:27.618Z,3.30
2023-01-29T00:58:27.445Z,3.50
2023-01-29T00:59:27.635Z,3.70
2023-01-29T01:00:27.427Z,3.90
2023-01-29T01:01:27.474Z,3.50
2023-01-29T01:02:27.418Z,3.30
2023-01-29T01:03:27.476Z,3.90
2023-01-29T01:04:27.365Z,3.70
2023-01-29T01:05:27.444Z,3.50
2023-01-29T01:06:27.345Z,3.20
2023-01-29T01:07:28.504Z,3.20
2023-01-29T01:08:27.338Z,3.20
2023-01-29T01:09:27.414Z,3.50
2023-01-29T01:10:27.293Z,3.60
2023-01-29T01:11:27.353Z,3.60
2023-01-29T01:12:27.264Z,3.50
2023-01-29T01:13:27.332Z,3.60
2023-01-29T01:14:27.254Z,3.70
2023-01-29T01:15:27.321Z,3.40
2023-01-29T01:16:27.256Z,3.60
2023-01-29T01:17:27.354Z,3.70
2023-01-29T01:18:27.190Z,3.50
2023-01-29T01:19:27.293Z,3.70
2023-01-29T01:20:27.172Z,3.40
2023-01-29T01:21:28.243Z,3.40
2023-01-29T01:22:27.132Z,3.60
2023-01-29T01:23:27.209Z,3.60
2023-01-29T01:24:27.142Z,3.40
2023-01-29T01:25:27.197Z,3.30
2023-01-29T01:26:27.092Z,3.20
2023-01-29T01:27:27.241Z,3.10
2023-01-29T01:28:27.051Z,3.40
2023-01-29T01:29:27.168Z,3.20
2023-01-29T01:30:27.065Z,3.40
2023-01-29T01:31:29.251Z,3.40
2023-01-29T01:32:27.013Z,3.70
2023-01-29T01:33:27.074Z,3.60
2023-01-29T01:34:26.974Z,3.40
2023-01-29T01:35:29.172Z,3.40
2023-01-29T01:36:26.955Z,3.70
2023-01-29T01:37:27.022Z,3.40
2023-01-29T01:38:26.960Z,3.70
2023-01-29T01:39:27.046Z,3.60
2023-01-29T01:40:26.908Z,3.60
2023-01-29T01:41:47.960Z,3.50
2023-01-29T01:42:26.869Z,3.70
2023-01-29T01:43:26.941Z,3.80
2023-01-29T01:44:26.859Z,3.70
2023-01-29T01:45:27.000Z,4.00
2023-01-29T01:46:26.818Z,4.00
2023-01-29T01:47:26.883Z,3.90
2023-01-29T01:48:26.787Z,3.70
2023-01-29T01:49:26.917Z,3.80
2023-01-29T01:50:26.777Z,3.60
2023-01-29T01:51:26.855Z,3.60
2023-01-29T01:52:26.737Z,3.60
2023-01-29T01:53:28.814Z,3.50
2023-01-29T01:54:26.708Z,3.30
2023-01-29T01:55:26.829Z,3.70
2023-01-29T01:56:26.710Z,3.80
2023-01-29T01:57:26.764Z,3.70
2023-01-29T01:58:26.660Z,3.50
2023-01-29T01:59:26.798Z,3.50
2023-01-29T02:00:26.629Z,4.10
2023-01-29T02:01:26.804Z,3.50
2023-01-29T02:02:26.664Z,3.50
2023-01-29T02:03:26.779Z,3.50
2023-01-29T02:04:26.597Z,3.70
2023-01-29T02:05:26.603Z,3.70
2023-01-29T02:06:26.560Z,3.20
2023-01-29T02:07:26.634Z,3.70
2023-01-29T02:08:26.545Z,3.50
2023-01-29T02:09:26.675Z,3.30
2023-01-29T02:10:26.512Z,3.40
2023-01-29T02:11:26.605Z,3.50
2023-01-29T02:12:26.488Z,3.40
2023-01-29T02:13:26.656Z,3.20
2023-01-29T02:14:26.469Z,3.30
2023-01-29T02:15:47.466Z,3.50
2023-01-29T02:16:26.447Z,3.70
2023-01-29T02:17:26.556Z,3.60
2023-01-29T02:18:26.393Z,3.70
2023-01-29T02:19:26.552Z,3.50
2023-01-29T02:20:26.383Z,3.60
2023-01-29T02:21:27.503Z,3.80
2023-01-29T02:22:26.343Z,3.90
2023-01-29T02:23:26.423Z,3.60
2023-01-29T02:24:26.367Z,3.40
2023-01-29T02:25:26.353Z,3.40
2023-01-29T02:26:26.310Z,3.50
2023-01-29T02:27:28.481Z,3.60
2023-01-29T02:28:26.272Z,3.30
2023-01-29T02:29:26.434Z,3.10
2023-01-29T02:30:26.249Z,3.50
2023-01-29T02:31:26.437Z,3.30
2023-01-29T02:32:26.221Z,3.20
2023-01-29T02:33:27.315Z,3.30
2023-01-29T02:34:26.181Z,3.70
2023-01-29T02:35:26.229Z,3.50
2023-01-29T02:36:26.150Z,3.30
2023-01-29T02:37:26.265Z,3.60
2023-01-29T02:38:26.145Z,3.40
2023-01-29T02:39:27.230Z,3.60
2023-01-29T02:40:26.100Z,3.60
2023-01-29T02:41:26.282Z,3.30
2023-01-29T02:42:26.088Z,3.30
2023-01-29T02:43:26.196Z,3.20
2023-01-29T02:44:26.082Z,3.40
2023-01-29T02:45:26.099Z,3.60
2023-01-29T02:46:26.021Z,3.40
2023-01-29T02:47:26.139Z,3.30
2023-01-29T02:48:26.026Z,3.00
2023-01-29T02:49:26.183Z,3.40
2023-01-29T02:50:25.987Z,3.10
2023-01-29T02:51:26.008Z,3.10
2023-01-29T02:52:25.941Z,3.30
2023-01-29T02:53:26.062Z,3.70
2023-01-29T02:54:25.970Z,3.60
2023-01-29T02:55:27.008Z,3.00
2023-01-29T02:56:25.905Z,3.30
2023-01-29T02:57:26.021Z,3.90
2023-01-29T02:58:25.870Z,3.50
2023-01-29T02:59:26.060Z,3.60
2023-01-29T03:00:25.837Z,3.10
2023-01-29T03:01:25.972Z,3.20
2023-01-29T03:02:25.877Z,3.10
2023-01-29T03:03:25.946Z,2.90
2023-01-29T03:04:25.790Z,3.10
2023-01-29T03:05:25.856Z,3.00
2023-01-29T03:06:25.757Z,3.20
2023-01-29T03:07:48.876Z,3.20
2023-01-29T03:08:25.730Z,3.10
2023-01-29T03:09:25.722Z,3.40
2023-01-29T03:10:25.794Z,3.20
2023-01-29T03:11:25.697Z,3.10
2023-01-29T03:12:25.836Z,3.20
2023-01-29T03:13:25.704Z,3.30
2023-01-29T03:14:25.765Z,3.10
2023-01-29T03:15:25.643Z,3.10
2023-01-29T03:16:25.847Z,3.10
2023-01-29T03:17:25.615Z,2.90
2023-01-29T03:18:47.691Z,3.10
2023-01-29T03:19:25.585Z,3.20
2023-01-29T03:20:25.677Z,3.50
2023-01-29T03:21:25.565Z,3.20
2023-01-29T03:22:25.713Z,3.20
2023-01-29T03:23:25.549Z,3.40
2023-01-29T03:24:25.645Z,3.10
2023-01-29T03:25:25.513Z,3.20
2023-01-29T03:26:25.575Z,3.10
2023-01-29T03:27:25.483Z,3.10
2023-01-29T03:28:25.633Z,3.40
2023-01-29T03:29:25.452Z,3.50
2023-01-29T03:30:29.792Z,3.20
2023-01-29T03:31:25.501Z,3.20
2023-01-29T03:32:25.583Z,3.00
2023-01-29T03:33:25.412Z,3.10
2023-01-29T03:34:25.528Z,3.20
2023-01-29T03:35:25.382Z,3.40
2023-01-29T03:36:25.501Z,3.20
2023-01-29T03:37:25.354Z,2.90
2023-01-29T03:38:25.491Z,2.80
2023-01-29T03:39:25.322Z,2.70
2023-01-29T03:40:25.437Z,3.00
2023-01-29T03:41:25.301Z,2.80
2023-01-29T03:42:25.413Z,2.60
2023-01-29T03:43:25.280Z,2.60
2023-01-29T03:44:25.391Z,2.70
2023-01-29T03:45:25.240Z,2.50
2023-01-29T03:46:25.331Z,2.60
2023-01-29T03:47:25.210Z,2.80
2023-01-29T03:48:25.410Z,2.70
2023-01-29T03:49:25.189Z,2.60
2023-01-29T03:50:25.299Z,2.50
2023-01-29T03:51:25.161Z,2.50
2023-01-29T03:52:25.237Z,2.60
2023-01-29T03:53:25.143Z,2.70
2023-01-29T03:54:25.220Z,2.80
2023-01-29T03:55:25.111Z,2.70
2023-01-29T03:56:25.200Z,2.80
2023-01-29T03:57:25.093Z,2.90
2023-01-29T03:58:27.251Z,2.90
2023-01-29T03:59:25.072Z,2.80
2023-01-29T04:00:25.235Z,2.90
2023-01-29T04:01:25.053Z,3.00
2023-01-29T04:02:25.107Z,2.90
2023-01-29T04:03:25.017Z,2.80
2023-01-29T04:04:25.202Z,2.90
2023-01-29T04:05:24.978Z,3.10
2023-01-29T04:06:25.136Z,2.60
2023-01-29T04:07:24.953Z,2.80
2023-01-29T04:08:25.133Z,2.80
2023-01-29T04:09:24.934Z,3.30
2023-01-29T04:10:24.959Z,2.60
2023-01-29T04:11:24.919Z,2.70
2023-01-29T04:12:25.050Z,2.60
2023-01-29T04:13:24.900Z,2.70
2023-01-29T04:14:25.027Z,2.70
2023-01-29T04:15:24.847Z,2.70
2023-01-29T04:16:27.084Z,2.50
2023-01-29T04:17:24.839Z,2.80
2023-01-29T04:18:24.945Z,2.80
2023-01-29T04:19:24.792Z,2.60
2023-01-29T04:20:24.837Z,2.80
2023-01-29T04:21:24.767Z,2.80
2023-01-29T04:22:45.835Z,3.10
2023-01-29T04:23:24.749Z,3.10
2023-01-29T04:24:24.916Z,3.30
2023-01-29T04:25:24.757Z,2.80
2023-01-29T04:26:24.843Z,2.90
2023-01-29T04:27:24.683Z,2.90
2023-01-29T04:28:26.753Z,2.80
2023-01-29T04:29:24.660Z,2.70
2023-01-29T04:30:24.755Z,3.00
2023-01-29T04:31:24.745Z,3.00
2023-01-29T04:32:24.744Z,2.80
2023-01-29T04:33:24.613Z,3.30
2023-01-29T04:34:24.783Z,2.80
2023-01-29T04:35:24.582Z,3.40
2023-01-29T04:36:24.762Z,3.40
2023-01-29T04:37:24.553Z,3.20
2023-01-29T04:38:24.643Z,2.70
2023-01-29T04:39:24.541Z,2.90
2023-01-29T04:40:24.579Z,2.60
2023-01-29T04:41:24.500Z,2.80
2023-01-29T04:42:24.662Z,2.70
2023-01-29T04:43:24.533Z,2.70
2023-01-29T04:44:24.650Z,2.60
2023-01-29T04:45:24.454Z,2.80
2023-01-29T04:46:26.685Z,2.80
2023-01-29T04:47:24.463Z,2.80
2023-01-29T04:48:24.549Z,2.40
2023-01-29T04:49:24.400Z,2.30
2023-01-29T04:50:24.450Z,2.20
2023-01-29T04:51:24.392Z,2.60
2023-01-29T04:52:24.491Z,2.30
2023-01-29T04:53:24.349Z,2.30
2023-01-29T04:54:24.471Z,2.60
2023-01-29T04:55:24.319Z,2.40
2023-01-29T04:56:24.362Z,2.40
2023-01-29T04:57:24.289Z,2.60
2023-01-29T04:58:45.383Z,2.50
2023-01-29T04:59:24.260Z,2.40
2023-01-29T05:00:24.388Z,2.50
2023-01-29T05:01:24.252Z,2.50
2023-01-29T05:02:25.486Z,2.50
2023-01-29T05:03:24.218Z,2.60
2023-01-29T05:04:26.397Z,2.70
2023-01-29T05:05:24.187Z,2.70
2023-01-29T05:06:24.287Z,2.50
2023-01-29T05:07:24.158Z,2.50
2023-01-29T05:08:24.276Z,2.60
2023-01-29T05:09:24.129Z,2.60
2023-01-29T05:10:46.207Z,2.70
2023-01-29T05:11:24.106Z,2.70
2023-01-29T05:12:24.295Z,2.60
2023-01-29T05:13:24.089Z,2.90
2023-01-29T05:14:24.276Z,2.90
2023-01-29T05:15:24.055Z,2.90
2023-01-29T05:16:24.147Z,2.80
2023-01-29T05:17:24.026Z,2.70
2023-01-29T05:18:24.103Z,2.90
2023-01-29T05:19:24.002Z,2.90
2023-01-29T05:20:24.092Z,2.90
2023-01-29T05:21:23.974Z,2.90
2023-01-29T05:22:45.102Z,3.00
2023-01-29T05:23:23.954Z,2.90
2023-01-29T05:24:24.047Z,2.80
2023-01-29T05:25:23.922Z,2.80
2023-01-29T05:26:24.015Z,2.80
2023-01-29T05:27:23.901Z,2.80
2023-01-29T05:28:26.021Z,2.90
2023-01-29T05:29:23.870Z,2.80
2023-01-29T05:30:24.013Z,3.10
2023-01-29T05:31:23.962Z,2.90
2023-01-29T05:32:24.023Z,2.80
2023-01-29T05:33:23.824Z,2.70
2023-01-29T05:34:23.928Z,2.70
2023-01-29T05:35:23.793Z,2.90
2023-01-29T05:36:23.923Z,2.90
2023-01-29T05:37:23.770Z,2.70
2023-01-29T05:38:23.921Z,2.80
2023-01-29T05:39:23.756Z,2.90
2023-01-29T05:40:23.842Z,2.80
2023-01-29T05:41:23.712Z,2.90
2023-01-29T05:42:23.826Z,3.10
2023-01-29T05:43:23.703Z,2.90
2023-01-29T05:44:23.802Z,2.60
2023-01-29T05:45:23.659Z,2.90
2023-01-29T05:46:23.794Z,3.00
2023-01-29T05:47:23.631Z,2.60
2023-01-29T05:48:23.744Z,3.00
2023-01-29T05:49:23.612Z,3.00
2023-01-29T05:50:25.803Z,3.00
2023-01-29T05:51:23.581Z,2.90
2023-01-29T05:52:23.645Z,2.90
2023-01-29T05:53:23.563Z,3.10
2023-01-29T05:54:23.631Z,3.40
2023-01-29T05:55:23.540Z,3.20
2023-01-29T05:56:24.741Z,3.20
2023-01-29T05:57:23.511Z,3.00
2023-01-29T05:58:23.655Z,3.00
2023-01-29T05:59:23.481Z,2.90
2023-01-29T06:00:23.658Z,3.20
2023-01-29T06:01:23.459Z,3.30
2023-01-29T06:02:23.530Z,2.90
2023-01-29T06:03:23.449Z,3.30
2023-01-29T06:04:23.578Z,3.20
2023-01-29T06:05:23.402Z,3.30
2023-01-29T06:06:23.548Z,3.70
2023-01-29T06:07:23.380Z,3.70
2023-01-29T06:08:46.499Z,3.40
2023-01-29T06:09:23.360Z,3.60
2023-01-29T06:10:23.371Z,3.40
2023-01-29T06:11:23.324Z,3.50
2023-01-29T06:12:23.457Z,3.50
2023-01-29T06:13:23.766Z,3.40
2023-01-29T06:14:24.356Z,3.50
2023-01-29T06:15:23.276Z,3.20
2023-01-29T06:16:23.418Z,3.30
2023-01-29T06:17:23.248Z,3.40
2023-01-29T06:18:23.472Z,3.20
2023-01-29T06:19:23.216Z,3.40
2023-01-29T06:20:23.236Z,3.40
2023-01-29T06:21:23.221Z,3.60
2023-01-29T06:22:23.285Z,3.40
2023-01-29T06:23:23.174Z,3.90
2023-01-29T06:24:24.339Z,3.60
2023-01-29T06:25:23.148Z,3.60
2023-01-29T06:26:23.255Z,3.70
2023-01-29T06:27:23.155Z,4.00
2023-01-29T06:28:23.287Z,3.60
2023-01-29T06:29:23.115Z,3.90
2023-01-29T06:30:26.343Z,3.90
2023-01-29T06:31:37.219Z,4.10
2023-01-29T06:32:24.077Z,4.20
2023-01-29T06:33:23.123Z,3.80
2023-01-29T06:34:23.025Z,3.90
2023-01-29T06:35:25.144Z,3.80
2023-01-29T06:36:23.021Z,4.10
2023-01-29T06:37:23.094Z,4.10
2023-01-29T06:38:22.977Z,4.10
2023-01-29T06:39:23.123Z,4.30
2023-01-29T06:40:22.951Z,3.70
2023-01-29T06:41:23.071Z,4.10
2023-01-29T06:42:22.933Z,4.20
2023-01-29T06:43:23.001Z,4.10
2023-01-29T06:44:22.892Z,3.90
2023-01-29T06:45:22.965Z,3.80
2023-01-29T06:46:22.896Z,4.10
2023-01-29T06:47:22.974Z,3.80
2023-01-29T06:48:22.961Z,3.70
2023-01-29T06:49:23.002Z,3.70
2023-01-29T06:50:22.820Z,3.50
2023-01-29T06:51:22.964Z,3.50
2023-01-29T06:52:22.973Z,3.50
2023-01-29T06:53:22.881Z,3.60
2023-01-29T06:54:22.781Z,3.60
2023-01-29T06:55:22.911Z,3.80
2023-01-29T06:56:22.730Z,3.80
2023-01-29T06:57:22.840Z,4.00
2023-01-29T06:58:22.717Z,3.80
2023-01-29T06:59:22.896Z,3.80
2023-01-29T07:00:22.701Z,4.00
2023-01-29T07:01:35.113Z,3.80
2023-01-29T07:02:23.709Z,3.80
2023-01-29T07:03:22.746Z,3.90
2023-01-29T07:04:22.628Z,3.50
2023-01-29T07:05:22.787Z,4.30
2023-01-29T07:06:22.625Z,4.00
2023-01-29T07:07:24.819Z,3.80
2023-01-29T07:08:22.605Z,3.80
2023-01-29T07:09:24.757Z,3.60
2023-01-29T07:10:22.554Z,3.80
2023-01-29T07:11:22.624Z,3.90
2023-01-29T07:12:22.543Z,4.00
2023-01-29T07:13:23.651Z,3.90
2023-01-29T07:14:22.679Z,3.90
2023-01-29T07:15:22.657Z,4.30
2023-01-29T07:16:22.484Z,4.20
2023-01-29T07:17:22.598Z,4.00
2023-01-29T07:18:22.469Z,3.80
2023-01-29T07:19:22.626Z,3.80
2023-01-29T07:20:22.428Z,3.80
2023-01-29T07:21:22.462Z,4.00
2023-01-29T07:22:22.474Z,3.90
2023-01-29T07:23:22.610Z,4.10
2023-01-29T07:24:22.494Z,4.00
2023-01-29T07:25:22.535Z,3.60
2023-01-29T07:26:22.348Z,3.90
2023-01-29T07:27:22.471Z,3.80
2023-01-29T07:28:22.330Z,4.00
2023-01-29T07:29:22.404Z,3.70
2023-01-29T07:30:22.305Z,3.80
2023-01-29T07:31:22.432Z,3.80
2023-01-29T07:32:22.321Z,3.60
2023-01-29T07:33:22.377Z,4.00
2023-01-29T07:34:22.236Z,3.80
2023-01-29T07:35:22.424Z,3.70
2023-01-29T07:36:22.261Z,3.40
2023-01-29T07:37:43.325Z,3.80
2023-01-29T07:38:22.194Z,3.70
2023-01-29T07:39:22.286Z,3.90
2023-01-29T07:40:22.163Z,3.80
2023-01-29T07:41:23.242Z,3.80
2023-01-29T07:42:22.166Z,3.80
2023-01-29T07:43:22.252Z,4.00
2023-01-29T07:44:22.111Z,3.90
2023-01-29T07:45:22.293Z,4.00
2023-01-29T07:46:22.090Z,4.00
2023-01-29T07:47:22.123Z,4.20
2023-01-29T07:48:22.072Z,3.70
2023-01-29T07:49:22.155Z,4.00
2023-01-29T07:50:22.163Z,3.60
2023-01-29T07:51:22.096Z,3.80
2023-01-29T07:52:22.436Z,3.80
2023-01-29T07:53:23.140Z,4.10
2023-01-29T07:54:21.992Z,4.30
2023-01-29T07:55:22.174Z,4.90
2023-01-29T07:56:21.951Z,4.10
2023-01-29T07:57:21.999Z,4.40
2023-01-29T07:58:21.939Z,4.30
2023-01-29T07:59:22.036Z,4.60
2023-01-29T08:00:21.931Z,4.30
2023-01-29T08:01:23.242Z,4.40
2023-01-29T08:02:21.980Z,4.50
2023-01-29T08:03:22.000Z,5.10
2023-01-29T08:04:22.011Z,4.80
2023-01-29T08:05:22.043Z,5.10
2023-01-29T08:06:21.945Z,5.50
2023-01-29T08:07:21.912Z,4.90
2023-01-29T08:08:21.798Z,4.60
2023-01-29T08:09:21.925Z,4.60
2023-01-29T08:10:21.777Z,5.00
2023-01-29T08:11:23.937Z,4.90
2023-01-29T08:12:21.813Z,5.30
2023-01-29T08:13:21.889Z,5.00
2023-01-29T08:14:21.722Z,4.60
2023-01-29T08:15:21.822Z,4.60
2023-01-29T08:16:21.717Z,4.40
2023-01-29T08:17:57.258Z,4.10
2023-01-29T08:18:22.684Z,3.80
2023-01-29T08:19:21.787Z,3.70
2023-01-29T08:20:21.642Z,3.50
2023-01-29T08:21:22.750Z,4.00
2023-01-29T08:22:21.627Z,4.90
2023-01-29T08:23:21.815Z,4.00
2023-01-29T08:24:21.611Z,4.20
2023-01-29T08:25:22.042Z,3.80
2023-01-29T08:26:21.588Z,4.40
2023-01-29T08:27:21.632Z,3.90
2023-01-29T08:28:21.535Z,4.30
2023-01-29T08:29:21.714Z,3.90
2023-01-29T08:30:21.514Z,3.40
2023-01-29T08:31:21.702Z,3.60
2023-01-29T08:32:21.486Z,4.00
2023-01-29T08:33:29.867Z,4.10
2023-01-29T08:34:22.486Z,4.20
2023-01-29T08:35:44.534Z,5.30
2023-01-29T08:36:21.433Z,5.20
2023-01-29T08:37:21.504Z,5.00
2023-01-29T08:38:21.413Z,5.30
2023-01-29T08:39:21.544Z,4.60
2023-01-29T08:40:21.401Z,4.20
2023-01-29T08:41:21.573Z,4.80
2023-01-29T08:42:21.352Z,4.30
2023-01-29T08:43:21.413Z,4.20
2023-01-29T08:44:21.333Z,4.20
2023-01-29T08:45:21.441Z,4.20
2023-01-29T08:46:21.361Z,4.70
2023-01-29T08:47:21.380Z,4.00
2023-01-29T08:48:21.284Z,4.10
2023-01-29T08:49:23.511Z,4.00
2023-01-29T08:50:21.270Z,4.00
2023-01-29T08:51:23.441Z,3.80
2023-01-29T08:52:21.247Z,4.40
2023-01-29T08:53:21.289Z,4.10
2023-01-29T08:54:21.201Z,3.50
2023-01-29T08:55:21.319Z,4.00
2023-01-29T08:56:21.180Z,4.00
2023-01-29T08:57:21.249Z,4.30
2023-01-29T08:58:21.171Z,4.30
2023-01-29T08:59:21.294Z,4.40
2023-01-29T09:00:21.134Z,4.40
2023-01-29T09:01:21.265Z,3.50
2023-01-29T09:02:21.160Z,4.10
2023-01-29T09:03:23.264Z,4.30
2023-01-29T09:04:21.088Z,3.90
2023-01-29T09:05:21.199Z,4.70
2023-01-29T09:06:21.039Z,3.80
2023-01-29T09:07:21.128Z,4.30
2023-01-29T09:08:21.027Z,4.30
2023-01-29T09:09:21.168Z,3.80
2023-01-29T09:10:21.030Z,4.40
2023-01-29T09:11:21.103Z,3.80
2023-01-29T09:12:20.977Z,4.00
2023-01-29T09:13:21.038Z,4.00
2023-01-29T09:14:20.959Z,3.60
2023-01-29T09:15:43.027Z,3.50
2023-01-29T09:16:20.951Z,4.20
2023-01-29T09:17:21.021Z,4.80
2023-01-29T09:18:20.898Z,4.60
2023-01-29T09:19:21.045Z,4.30
2023-01-29T09:20:20.874Z,4.10
2023-01-29T09:21:24.205Z,4.20
2023-01-29T09:22:20.848Z,4.30
2023-01-29T09:23:20.914Z,3.90
2023-01-29T09:24:20.832Z,4.30
2023-01-29T09:25:20.967Z,4.20
2023-01-29T09:26:20.802Z,4.50
2023-01-29T09:27:20.948Z,4.30
2023-01-29T09:28:20.768Z,4.30
2023-01-29T09:29:20.822Z,4.00
2023-01-29T09:30:20.737Z,4.40
2023-01-29T09:31:20.949Z,4.50
2023-01-29T09:32:49.690Z,4.60
2023-01-29T09:33:21.714Z,3.90
2023-01-29T09:34:20.756Z,4.20
2023-01-29T09:35:20.681Z,4.30
2023-01-29T09:36:20.794Z,4.40
2023-01-29T09:37:21.135Z,4.40
2023-01-29T09:38:20.748Z,4.60
2023-01-29T09:39:20.636Z,4.40
2023-01-29T09:40:20.767Z,4.10
2023-01-29T09:41:20.609Z,4.50
2023-01-29T09:42:20.701Z,4.60
2023-01-29T09:43:20.564Z,4.30
2023-01-29T09:44:21.661Z,4.60
2023-01-29T09:45:20.589Z,4.30
2023-01-29T09:46:20.772Z,4.60
2023-01-29T09:47:20.515Z,4.80
2023-01-29T09:48:20.610Z,4.40
2023-01-29T09:49:20.500Z,4.60
2023-01-29T09:50:21.675Z,4.40
2023-01-29T09:51:20.480Z,4.90
2023-01-29T09:52:20.472Z,4.10
2023-01-29T09:53:20.444Z,4.10
2023-01-29T09:54:20.510Z,4.30
2023-01-29T09:55:20.415Z,4.50
2023-01-29T09:56:41.476Z,5.00
2023-01-29T09:57:20.388Z,5.20
2023-01-29T09:58:20.495Z,4.30
2023-01-29T09:59:20.353Z,4.50
2023-01-29T10:00:22.513Z,4.20
2023-01-29T10:01:20.408Z,3.50
2023-01-29T10:02:23.592Z,3.30
2023-01-29T10:03:20.311Z,3.10
2023-01-29T10:04:41.423Z,3.60
2023-01-29T10:05:20.522Z,3.60
2023-01-29T10:06:20.434Z,3.70
2023-01-29T10:07:20.279Z,3.50
2023-01-29T10:08:21.378Z,3.70
2023-01-29T10:09:20.229Z,3.60
2023-01-29T10:10:20.399Z,3.80
2023-01-29T10:11:20.197Z,3.70
2023-01-29T10:12:20.230Z,3.70
2023-01-29T10:13:20.188Z,3.50
2023-01-29T10:15:29.668Z,3.80
2023-01-29T10:16:29.443Z,3.80
2023-01-29T10:17:29.482Z,3.70
2023-01-29T10:18:29.422Z,3.50
2023-01-29T10:19:50.482Z,3.30
2023-01-29T10:20:29.382Z,3.40
2023-01-29T10:21:30.470Z,3.30
2023-01-29T10:22:29.355Z,3.60
2023-01-29T10:23:29.491Z,3.70
2023-01-29T10:24:29.348Z,3.40
2023-01-29T10:25:29.414Z,3.80
2023-01-29T10:26:29.326Z,3.60
2023-01-29T10:27:29.350Z,3.90
2023-01-29T10:28:29.306Z,3.50
2023-01-29T10:29:29.389Z,3.60
2023-01-29T10:30:29.274Z,3.50
2023-01-29T10:31:30.434Z,3.40
2023-01-29T10:32:29.238Z,3.50
2023-01-29T10:33:33.027Z,3.50
2023-01-29T10:34:30.200Z,3.50
2023-01-29T10:35:29.292Z,3.50
2023-01-29T10:36:29.193Z,3.50
2023-01-29T10:37:29.227Z,3.60
2023-01-29T10:38:29.148Z,3.70
2023-01-29T10:39:31.357Z,3.60
2023-01-29T10:40:29.131Z,3.60
2023-01-29T10:41:29.299Z,3.70
2023-01-29T10:42:29.109Z,4.00
2023-01-29T10:43:29.253Z,3.80
2023-01-29T10:44:29.069Z,3.50
2023-01-29T10:45:29.170Z,3.70
2023-01-29T10:46:29.057Z,3.60
2023-01-29T10:47:30.392Z,3.70
2023-01-29T10:48:29.045Z,3.90
2023-01-29T10:49:29.147Z,3.90
2023-01-29T10:50:28.993Z,3.60
2023-01-29T10:51:29.177Z,3.80
2023-01-29T10:52:28.982Z,3.70
2023-01-29T10:53:29.023Z,4.00
2023-01-29T10:54:28.984Z,4.00
2023-01-29T10:55:29.047Z,3.70
2023-01-29T10:56:28.920Z,4.10
2023-01-29T10:57:28.982Z,3.50
2023-01-29T10:58:28.893Z,3.80
2023-01-29T10:59:29.016Z,3.30
2023-01-29T11:00:28.876Z,3.80
2023-01-29T11:01:29.084Z,4.00
2023-01-29T11:02:28.864Z,3.90
2023-01-29T11:03:29.453Z,3.80
2023-01-29T11:04:28.811Z,4.00
2023-01-29T11:05:50.874Z,3.80
2023-01-29T11:06:28.800Z,3.60
2023-01-29T11:07:28.855Z,3.50
2023-01-29T11:08:28.756Z,3.40
2023-01-29T11:09:28.899Z,3.60
2023-01-29T11:10:28.724Z,4.50
2023-01-29T11:11:32.056Z,4.30
2023-01-29T11:12:28.724Z,4.30
2023-01-29T11:13:28.766Z,4.20
2023-01-29T11:14:28.684Z,4.60
2023-01-29T11:15:28.793Z,4.80
2023-01-29T11:16:28.662Z,4.30
2023-01-29T11:17:30.833Z,4.40
2023-01-29T11:18:28.640Z,4.30
2023-01-29T11:19:51.949Z,4.30
2023-01-29T11:20:28.603Z,4.60
2023-01-29T11:21:28.600Z,4.60
2023-01-29T11:22:28.687Z,4.40
2023-01-29T11:23:28.598Z,4.60
2023-01-29T11:24:29.737Z,4.30
2023-01-29T11:25:28.537Z,4.00
2023-01-29T11:26:28.673Z,4.10
2023-01-29T11:27:28.513Z,3.90
2023-01-29T11:28:28.571Z,3.40
2023-01-29T11:29:28.788Z,3.70
2023-01-29T11:30:50.678Z,3.80
2023-01-29T11:31:28.550Z,3.60
2023-01-29T11:32:28.652Z,3.50
2023-01-29T11:33:28.464Z,3.70
2023-01-29T11:34:28.495Z,3.70
2023-01-29T11:35:28.432Z,3.80
2023-01-29T11:36:29.440Z,3.70
2023-01-29T11:37:28.382Z,3.90
2023-01-29T11:38:28.464Z,3.90
2023-01-29T11:39:28.351Z,3.80
2023-01-29T11:40:28.488Z,3.80
2023-01-29T11:41:28.351Z,3.50
2023-01-29T11:42:28.528Z,4.10
2023-01-29T11:43:28.309Z,3.60
2023-01-29T11:44:28.359Z,3.90
2023-01-29T11:45:28.269Z,3.60
2023-01-29T11:46:28.500Z,3.80
2023-01-29T11:47:28.281Z,3.70
2023-01-29T11:48:49.308Z,3.40
2023-01-29T11:49:28.239Z,3.70
2023-01-29T11:50:28.382Z,3.90
2023-01-29T11:51:28.207Z,3.90
2023-01-29T11:52:28.409Z,3.70
2023-01-29T11:53:28.207Z,3.80
2023-01-29T11:54:28.243Z,3.80
2023-01-29T11:55:29.653Z,3.80
2023-01-29T11:56:28.141Z,3.60
2023-01-29T11:57:28.338Z,3.50
2023-01-29T11:58:28.107Z,3.60
2023-01-29T11:59:28.232Z,3.40
2023-01-29T12:00:28.080Z,3.30
2023-01-29T12:01:28.216Z,3.80
2023-01-29T12:02:28.078Z,3.60
2023-01-29T12:03:28.203Z,3.90
2023-01-29T12:04:28.040Z,3.90
2023-01-29T12:05:28.247Z,3.50
2023-01-29T12:06:27.997Z,3.80
2023-01-29T12:07:28.120Z,4.40
2023-01-29T12:08:27.977Z,3.80
2023-01-29T12:09:28.068Z,4.00
2023-01-29T12:10:27.946Z,3.50
2023-01-29T12:11:28.047Z,3.90
2023-01-29T12:12:28.064Z,4.00
2023-01-29T12:13:28.029Z,4.00
2023-01-29T12:14:27.916Z,4.40
2023-01-29T12:15:28.064Z,3.90
2023-01-29T12:16:27.977Z,4.00
2023-01-29T12:17:27.944Z,3.70
2023-01-29T12:18:27.844Z,3.70
2023-01-29T12:19:27.925Z,4.20
2023-01-29T12:20:27.827Z,3.60
2023-01-29T12:21:27.968Z,3.90
2023-01-29T12:22:27.794Z,3.90
2023-01-29T12:23:31.126Z,4.10
2023-01-29T12:24:27.775Z,3.90
2023-01-29T12:25:27.839Z,3.80
2023-01-29T12:26:27.799Z,3.60
2023-01-29T12:27:27.879Z,3.70
2023-01-29T12:28:27.711Z,4.10
2023-01-29T12:29:27.868Z,3.80
2023-01-29T12:30:27.721Z,4.10
2023-01-29T12:31:27.895Z,4.20
2023-01-29T12:32:27.669Z,3.80
2023-01-29T12:33:27.782Z,4.30
2023-01-29T12:34:27.647Z,3.80
2023-01-29T12:35:27.753Z,3.90
2023-01-29T12:36:27.615Z,3.70
2023-01-29T12:37:27.748Z,3.60
2023-01-29T12:38:27.584Z,3.60
2023-01-29T12:39:28.701Z,3.60
2023-01-29T12:40:27.569Z,3.70
2023-01-29T12:41:27.772Z,4.00
2023-01-29T12:42:27.561Z,3.50
2023-01-29T12:43:27.653Z,3.70
2023-01-29T12:44:27.512Z,3.70
2023-01-29T12:45:27.581Z,3.60
2023-01-29T12:46:27.507Z,3.80
2023-01-29T12:47:27.572Z,4.00
2023-01-29T12:48:27.461Z,3.80
2023-01-29T12:49:27.550Z,3.60
2023-01-29T12:50:27.429Z,3.90
2023-01-29T12:51:28.619Z,4.00
2023-01-29T12:52:27.412Z,3.80
2023-01-29T12:53:27.491Z,3.70
2023-01-29T12:54:27.390Z,3.90
2023-01-29T12:55:27.463Z,3.90
2023-01-29T12:56:27.361Z,4.30
2023-01-29T12:57:28.419Z,4.00
2023-01-29T12:58:27.334Z,4.30
2023-01-29T12:59:29.222Z,4.30
2023-01-29T13:00:27.313Z,4.20
2023-01-29T13:01:27.470Z,3.90
2023-01-29T13:02:27.281Z,4.20
2023-01-29T13:03:27.556Z,4.40
2023-01-29T13:04:27.286Z,4.00
2023-01-29T13:05:27.389Z,4.40
2023-01-29T13:06:27.228Z,4.30
2023-01-29T13:07:27.370Z,4.60
2023-01-29T13:08:27.208Z,4.10
2023-01-29T13:09:27.311Z,4.30
2023-01-29T13:10:27.182Z,4.60
2023-01-29T13:11:27.289Z,4.20
2023-01-29T13:12:27.155Z,4.50
2023-01-29T13:13:27.299Z,4.20
2023-01-29T13:14:27.119Z,4.40
2023-01-29T13:15:27.208Z,4.50
2023-01-29T13:16:27.148Z,4.70
2023-01-29T13:17:27.192Z,4.50
2023-01-29T13:18:27.078Z,4.50
2023-01-29T13:19:28.226Z,4.70
2023-01-29T13:20:29.125Z,5.30